Time;durP1;ratioP1;P1;durP2;ratioP2;P2;SDS_P1;SDS_P2;PMS_P1;PMS_P2;Temp;Humidity;BMP_temperature;BMP_pressure;BME280_temperature;BME280_humidity;BME280_pressure;Samples;Min_cycle;Max_cycle;Signal;HPM_P1;HPM_P2
2022/03/07 00:01:32;;;;;;;6.77;4.43;;;0.80;99.90;;;;;;5013858;28;20481;-85
2022/03/07 00:04:02;;;;;;;5.30;4.23;;;0.80;99.90;;;;;;5006854;28;20108;-86
2022/03/07 00:06:29;;;;;;;4.80;4.30;;;0.80;99.90;;;;;;4996752;28;20050;-87
2022/03/07 00:08:57;;;;;;;5.93;4.87;;;0.80;99.90;;;;;;4995561;28;20042;-85
2022/03/07 00:11:24;;;;;;;4.63;4.07;;;0.70;99.90;;;;;;4997143;28;20046;-86
2022/03/07 00:13:51;;;;;;;3.97;3.50;;;0.70;99.90;;;;;;4998223;28;20436;-86
2022/03/07 00:16:18;;;;;;;5.53;4.73;;;0.70;99.90;;;;;;4997151;28;20046;-85
2022/03/07 00:18:45;;;;;;;6.93;4.60;;;0.60;99.90;;;;;;4997835;28;20050;-85
2022/03/07 00:21:12;;;;;;;5.47;4.80;;;0.60;99.90;;;;;;4979220;28;20508;-85
2022/03/07 00:23:40;;;;;;;4.77;3.90;;;0.50;99.90;;;;;;4982691;28;20068;-85
2022/03/07 00:26:08;;;;;;;6.83;4.40;;;0.40;99.90;;;;;;4996352;28;20058;-85
2022/03/07 00:28:35;;;;;;;3.43;3.13;;;0.30;99.90;;;;;;4996102;28;20421;-81
2022/03/07 00:31:02;;;;;;;4.73;4.00;;;0.20;99.90;;;;;;4994482;28;20061;-81
2022/03/07 00:33:29;;;;;;;8.37;4.23;;;0.20;99.90;;;;;;4994722;28;20057;-82
2022/03/07 00:35:55;;;;;;;6.07;4.70;;;0.10;99.90;;;;;;4995291;28;20104;-81
2022/03/07 00:38:23;;;;;;;3.60;3.30;;;-0.10;99.90;;;;;;5003027;28;20073;-82
2022/03/07 00:40:49;;;;;;;6.63;4.70;;;-0.10;99.90;;;;;;5001161;28;20409;-84
2022/03/07 00:43:19;;;;;;;3.63;3.20;;;-0.30;99.90;;;;;;4996176;28;20092;-83
2022/03/07 00:45:46;;;;;;;5.97;4.23;;;-0.40;99.90;;;;;;4995444;28;20501;-84
2022/03/07 00:48:13;;;;;;;5.83;4.07;;;-0.60;99.90;;;;;;4996197;28;20054;-85
2022/03/07 00:50:42;;;;;;;4.57;3.10;;;-0.70;99.90;;;;;;4995737;28;20126;-84
2022/03/07 00:53:10;;;;;;;5.13;3.67;;;-0.80;99.90;;;;;;4998372;28;20053;-83
2022/03/07 00:55:37;;;;;;;5.37;3.73;;;-0.90;99.90;;;;;;5013562;28;20053;-81
2022/03/07 00:58:04;;;;;;;4.00;3.67;;;-1.00;99.90;;;;;;5013872;28;20054;-83
2022/03/07 01:00:32;;;;;;;4.00;3.63;;;-1.00;99.90;;;;;;5015023;28;20042;-84
2022/03/07 01:02:59;;;;;;;5.23;3.67;;;-1.10;99.90;;;;;;5015639;28;20061;-87
2022/03/07 01:05:26;;;;;;;9.47;4.10;;;-1.20;99.90;;;;;;5015659;28;20064;-83
2022/03/07 01:07:53;;;;;;;5.03;3.97;;;-1.30;99.90;;;;;;5014687;28;20137;-81
2022/03/07 01:10:20;;;;;;;6.50;3.80;;;-1.30;99.90;;;;;;5015088;28;20051;-80
2022/03/07 01:12:46;;;;;;;4.70;4.07;;;-1.40;99.90;;;;;;5008084;28;20277;-80
2022/03/07 01:15:14;;;;;;;4.73;4.00;;;-1.40;99.90;;;;;;5002974;28;20046;-80
2022/03/07 01:17:42;;;;;;;3.53;3.23;;;-1.50;99.90;;;;;;4999150;28;20054;-81
2022/03/07 01:20:10;;;;;;;3.13;2.77;;;-1.50;99.90;;;;;;5000639;28;20054;-81
2022/03/07 01:22:37;;;;;;;7.30;4.40;;;-1.50;99.90;;;;;;5003488;28;20041;-82
2022/03/07 01:25:06;;;;;;;10.30;4.33;;;-1.60;99.90;;;;;;4989408;28;20093;-81
2022/03/07 01:27:34;;;;;;;5.77;3.87;;;-1.60;99.90;;;;;;5006427;28;20046;-80
2022/03/07 01:30:00;;;;;;;9.43;3.90;;;-1.70;99.90;;;;;;5016108;28;20054;-81
2022/03/07 01:32:27;;;;;;;4.70;3.07;;;-1.70;99.90;;;;;;5018337;28;20055;-81
2022/03/07 01:34:55;;;;;;;4.73;3.23;;;-1.70;99.90;;;;;;5012403;28;20085;-79
2022/03/07 01:37:22;;;;;;;4.37;3.93;;;-1.80;99.90;;;;;;5011880;28;20535;-79
2022/03/07 01:39:49;;;;;;;4.50;4.10;;;-1.80;99.90;;;;;;5074432;23;20113;-81
2022/03/07 01:42:16;;;;;;;5.23;3.50;;;-1.80;99.90;;;;;;5056033;28;20045;-82
2022/03/07 01:44:43;;;;;;;3.60;3.40;;;-1.80;99.90;;;;;;5043916;28;20053;-81
2022/03/07 01:47:10;;;;;;;3.63;3.33;;;-1.90;99.90;;;;;;5072381;28;20045;-81
2022/03/07 01:49:37;;;;;;;3.53;3.17;;;-1.90;99.90;;;;;;5080284;28;20051;-81
2022/03/07 01:52:07;;;;;;;5.37;3.00;;;-1.90;99.90;;;;;;5080927;28;20067;-84
2022/03/07 01:54:34;;;;;;;3.03;2.83;;;-1.90;99.90;;;;;;5078168;28;20107;-83
2022/03/07 01:57:01;;;;;;;4.17;3.17;;;-2.00;99.90;;;;;;5079845;28;20037;-84
2022/03/07 01:59:29;;;;;;;4.07;3.77;;;-2.00;99.90;;;;;;5079133;28;20053;-83
2022/03/07 02:01:58;;;;;;;4.07;2.97;;;-2.10;99.90;;;;;;5079315;28;20051;-81
2022/03/07 02:04:25;;;;;;;2.27;2.07;;;-2.10;99.90;;;;;;5080245;28;20033;-83
2022/03/07 02:06:52;;;;;;;3.70;3.40;;;-2.10;99.90;;;;;;5071711;28;20053;-83
2022/03/07 02:09:20;;;;;;;7.33;3.77;;;-2.20;99.90;;;;;;5078171;28;20033;-84
2022/03/07 02:11:47;;;;;;;4.13;3.67;;;-2.20;99.90;;;;;;5078358;28;20045;-82
2022/03/07 02:14:15;;;;;;;6.20;3.67;;;-2.30;99.90;;;;;;5078190;28;20032;-82
2022/03/07 02:16:42;;;;;;;10.23;3.47;;;-2.40;99.90;;;;;;5079313;28;20051;-81
2022/03/07 02:19:09;;;;;;;9.70;8.77;;;-2.40;99.90;;;;;;5078589;28;20053;-83
2022/03/07 02:21:39;;;;;;;3.80;3.20;;;-2.40;99.90;;;;;;5078966;28;20057;-84
2022/03/07 02:24:08;;;;;;;4.17;3.87;;;-2.40;99.90;;;;;;5078527;28;20029;-84
2022/03/07 02:26:35;;;;;;;2.93;2.53;;;-2.40;99.90;;;;;;5079709;28;20110;-84
2022/03/07 02:29:02;;;;;;;4.00;3.23;;;-2.40;99.90;;;;;;5063277;28;20032;-84
2022/03/07 02:31:29;;;;;;;4.83;4.00;;;-2.40;99.90;;;;;;5079796;28;20060;-84
2022/03/07 02:33:57;;;;;;;9.87;3.67;;;-2.40;99.90;;;;;;5057368;28;20053;-83
2022/03/07 02:36:23;;;;;;;2.87;2.67;;;-2.40;99.90;;;;;;5079996;28;20100;-81
2022/03/07 02:38:50;;;;;;;3.37;3.07;;;-2.50;99.90;;;;;;5079188;28;20061;-82
2022/03/07 02:41:18;;;;;;;2.50;2.07;;;-2.60;99.90;;;;;;5065124;28;20052;-83
2022/03/07 02:43:45;;;;;;;3.97;3.07;;;-2.70;99.90;;;;;;5075484;28;20059;-83
2022/03/07 02:46:12;;;;;;;4.47;2.57;;;-2.70;99.90;;;;;;5071622;28;20099;-81
2022/03/07 02:48:39;;;;;;;6.20;3.57;;;-2.60;99.90;;;;;;5066898;28;20136;-82
2022/03/07 02:51:06;;;;;;;3.13;2.83;;;-2.60;99.90;;;;;;5060783;28;20025;-82
2022/03/07 02:53:33;;;;;;;2.53;2.33;;;-2.60;99.90;;;;;;5069661;28;20027;-83
2022/03/07 02:56:00;;;;;;;3.80;3.43;;;-2.60;99.90;;;;;;5062184;28;20045;-84
2022/03/07 02:58:28;;;;;;;5.67;3.43;;;-2.50;99.90;;;;;;5063835;28;20076;-83
2022/03/07 03:00:55;;;;;;;4.17;3.47;;;-2.50;99.90;;;;;;5073204;28;20049;-83
2022/03/07 03:03:21;;;;;;;5.70;3.50;;;-2.50;99.90;;;;;;5068033;28;20049;-83
2022/03/07 03:05:49;;;;;;;3.67;3.00;;;-2.50;99.90;;;;;;5049644;28;20052;-83
2022/03/07 03:08:16;;;;;;;4.23;3.80;;;-2.50;99.90;;;;;;5062053;28;20053;-84
2022/03/07 03:10:45;;;;;;;2.40;2.20;;;-2.50;99.90;;;;;;5051517;28;20045;-84
2022/03/07 03:13:12;;;;;;;4.73;4.23;;;-2.50;99.90;;;;;;5055804;28;20383;-84
2022/03/07 03:15:40;;;;;;;5.37;3.73;;;-2.50;99.90;;;;;;5057281;28;20049;-83
2022/03/07 03:18:07;;;;;;;5.67;3.77;;;-2.60;99.90;;;;;;5054854;28;20049;-81
2022/03/07 03:20:34;;;;;;;12.23;9.60;;;-2.60;99.90;;;;;;5056768;28;20090;-83
2022/03/07 03:23:01;;;;;;;9.80;6.30;;;-2.60;99.90;;;;;;5055485;28;20391;-83
2022/03/07 03:25:27;;;;;;;7.73;5.93;;;-2.60;99.90;;;;;;5041847;28;20430;-82
2022/03/07 03:27:54;;;;;;;5.00;2.73;;;-2.60;99.90;;;;;;5056446;28;20053;-82
2022/03/07 03:30:21;;;;;;;4.20;3.63;;;-2.60;99.90;;;;;;5055887;28;20041;-83
2022/03/07 03:32:50;;;;;;;3.97;3.67;;;-2.60;99.90;;;;;;5056556;28;20045;-83
2022/03/07 03:35:17;;;;;;;4.00;3.10;;;-2.60;99.90;;;;;;5057241;28;20048;-82
2022/03/07 03:37:44;;;;;;;4.43;3.23;;;-2.60;99.90;;;;;;5041350;28;20107;-82
2022/03/07 03:40:14;;;;;;;3.20;2.63;;;-2.60;99.90;;;;;;5061322;28;20097;-84
2022/03/07 03:42:41;;;;;;;8.27;3.27;;;-2.60;99.90;;;;;;5061801;28;20059;-85
2022/03/07 03:45:11;;;;;;;7.90;6.13;;;-2.60;99.90;;;;;;5058113;28;20052;-83
2022/03/07 03:47:39;;;;;;;3.43;2.93;;;-2.60;99.90;;;;;;5055195;28;20045;-82
2022/03/07 03:50:09;;;;;;;5.57;5.00;;;-2.60;99.90;;;;;;5055102;28;20077;-83
2022/03/07 03:52:36;;;;;;;6.30;4.47;;;-2.60;99.90;;;;;;5055066;28;20106;-83
2022/03/07 03:55:04;;;;;;;2.90;2.57;;;-2.60;99.90;;;;;;5055632;28;20428;-84
2022/03/07 03:57:31;;;;;;;4.50;4.10;;;-2.60;99.90;;;;;;5055532;28;20052;-83
2022/03/07 03:59:58;;;;;;;6.13;4.60;;;-2.60;99.90;;;;;;5054870;28;20053;-82
2022/03/07 04:02:25;;;;;;;3.53;3.23;;;-2.50;99.90;;;;;;5054721;28;20049;-83
2022/03/07 04:04:52;;;;;;;3.93;3.63;;;-2.50;99.90;;;;;;5054860;28;20387;-83
2022/03/07 04:07:20;;;;;;;3.17;2.90;;;-2.40;99.90;;;;;;5054955;28;20052;-83
2022/03/07 04:09:47;;;;;;;4.87;4.57;;;-2.40;99.90;;;;;;5055293;28;20056;-83
2022/03/07 04:12:17;;;;;;;3.80;3.53;;;-2.30;99.90;;;;;;5054241;28;20052;-83
2022/03/07 04:14:46;;;;;;;4.30;3.90;;;-2.30;99.90;;;;;;5053648;28;20056;-83
2022/03/07 04:17:13;;;;;;;5.60;4.57;;;-2.30;99.90;;;;;;5049843;28;20045;-82
2022/03/07 04:19:40;;;;;;;10.17;5.07;;;-2.20;99.90;;;;;;5054557;28;20057;-83
2022/03/07 04:22:07;;;;;;;6.17;4.63;;;-2.30;99.90;;;;;;5054090;28;20049;-83
2022/03/07 04:24:35;;;;;;;6.97;3.60;;;-2.30;99.90;;;;;;5054275;28;20048;-84
2022/03/07 04:27:03;;;;;;;4.27;3.93;;;-2.20;99.90;;;;;;5054221;28;20119;-84
2022/03/07 04:29:30;;;;;;;5.03;3.97;;;-2.30;99.90;;;;;;5054435;28;20052;-83
2022/03/07 04:31:57;;;;;;;4.57;3.93;;;-2.20;99.90;;;;;;5054397;28;20099;-84
2022/03/07 04:34:24;;;;;;;4.83;4.00;;;-2.30;99.90;;;;;;5054273;28;20491;-83
2022/03/07 04:36:51;;;;;;;4.40;4.00;;;-2.30;99.90;;;;;;5054489;28;20048;-82
2022/03/07 04:39:18;;;;;;;3.73;3.43;;;-2.30;99.90;;;;;;5055081;28;20068;-82
2022/03/07 04:41:46;;;;;;;4.97;4.37;;;-2.30;99.90;;;;;;5054735;28;20053;-82
2022/03/07 04:44:13;;;;;;;6.97;4.50;;;-2.30;99.90;;;;;;5054553;28;20110;-82
2022/03/07 04:46:40;;;;;;;8.47;4.27;;;-2.20;99.90;;;;;;5054627;28;20037;-82
2022/03/07 04:49:09;;;;;;;8.47;3.53;;;-2.20;99.90;;;;;;5055453;28;20052;-82
2022/03/07 04:51:37;;;;;;;5.03;3.70;;;-2.20;99.90;;;;;;5056118;28;20037;-84
2022/03/07 04:54:04;;;;;;;4.60;4.10;;;-2.20;99.90;;;;;;5057388;28;20055;-81
2022/03/07 04:56:31;;;;;;;7.27;5.90;;;-2.20;99.90;;;;;;5056051;28;20041;-82
2022/03/07 04:58:59;;;;;;;5.13;4.27;;;-2.20;99.90;;;;;;5056548;28;20044;-83
2022/03/07 05:01:26;;;;;;;4.60;4.17;;;-2.20;99.90;;;;;;5039127;28;20045;-81
2022/03/07 05:03:52;;;;;;;6.13;4.60;;;-2.20;99.90;;;;;;5056696;28;20048;-80
2022/03/07 05:06:19;;;;;;;5.07;4.43;;;-2.20;99.90;;;;;;5058004;28;20048;-81
2022/03/07 05:08:46;;;;;;;4.37;4.00;;;-2.30;99.90;;;;;;5060280;28;20045;-82
2022/03/07 05:11:13;;;;;;;5.67;5.00;;;-2.30;99.90;;;;;;5066656;28;20045;-84
2022/03/07 05:13:40;;;;;;;7.10;4.20;;;-2.30;99.90;;;;;;5040323;28;20404;-81
2022/03/07 05:16:08;;;;;;;5.90;4.60;;;-2.30;99.90;;;;;;5060004;28;20057;-81
2022/03/07 05:18:35;;;;;;;5.43;4.33;;;-2.30;99.90;;;;;;5066208;28;20048;-82
2022/03/07 05:21:01;;;;;;;6.43;5.93;;;-2.40;99.90;;;;;;5064417;28;20048;-80
2022/03/07 05:23:28;;;;;;;9.80;6.23;;;-2.40;99.90;;;;;;5063297;28;20045;-80
2022/03/07 05:25:55;;;;;;;5.57;5.00;;;-2.40;99.90;;;;;;5063545;28;20056;-83
2022/03/07 05:28:22;;;;;;;5.07;4.63;;;-2.50;99.90;;;;;;5062967;28;20136;-83
2022/03/07 05:30:51;;;;;;;3.67;3.23;;;-2.60;99.90;;;;;;5063493;28;20075;-82
2022/03/07 05:33:19;;;;;;;6.93;4.90;;;-2.60;99.90;;;;;;5060292;28;20060;-82
2022/03/07 05:35:46;;;;;;;10.27;7.23;;;-2.60;99.90;;;;;;5060556;28;20056;-82
2022/03/07 05:38:13;;;;;;;6.90;4.80;;;-2.50;99.90;;;;;;5055834;28;20049;-82
2022/03/07 05:40:40;;;;;;;9.77;7.47;;;-2.40;99.90;;;;;;5054245;28;20049;-82
2022/03/07 05:43:07;;;;;;;8.70;5.00;;;-2.40;99.90;;;;;;5054742;28;20064;-83
2022/03/07 05:45:34;;;;;;;19.90;5.53;;;-2.40;99.90;;;;;;5054647;28;20178;-81
2022/03/07 05:48:00;;;;;;;8.70;5.07;;;-2.40;99.90;;;;;;5054697;28;20053;-83
2022/03/07 05:50:29;;;;;;;8.27;6.57;;;-2.30;99.90;;;;;;5055637;28;20041;-81
2022/03/07 05:52:55;;;;;;;7.47;5.57;;;-2.30;99.90;;;;;;5054510;28;20473;-80
2022/03/07 05:55:22;;;;;;;11.33;7.13;;;-2.30;99.90;;;;;;5055514;28;20053;-80
2022/03/07 05:57:49;;;;;;;8.20;5.83;;;-2.20;99.90;;;;;;5054304;28;20049;-82
2022/03/07 06:00:17;;;;;;;6.73;6.13;;;-2.10;99.90;;;;;;5054230;28;20071;-80
2022/03/07 06:02:44;;;;;;;6.43;5.93;;;-2.00;99.90;;;;;;5041297;28;20136;-82
2022/03/07 06:05:11;;;;;;;7.47;6.10;;;-2.00;99.90;;;;;;5052430;28;20041;-81
2022/03/07 06:07:39;;;;;;;7.87;5.10;;;-1.80;99.90;;;;;;5056477;28;20049;-79
2022/03/07 06:10:06;;;;;;;6.83;6.23;;;-1.60;99.90;;;;;;5055638;28;20053;-79
2022/03/07 06:12:33;;;;;;;11.27;6.57;;;-1.30;99.90;;;;;;5055791;28;20041;-80
2022/03/07 06:15:03;;;;;;;9.67;5.97;;;-1.10;99.90;;;;;;5056746;28;20045;-80
2022/03/07 06:17:30;;;;;;;8.03;6.13;;;-0.80;99.90;;;;;;5056342;28;20045;-82
2022/03/07 06:19:57;;;;;;;12.50;7.17;;;-0.60;99.90;;;;;;5056332;28;20045;-79
2022/03/07 06:22:24;;;;;;;7.10;6.40;;;-0.30;99.90;;;;;;5055825;28;20102;-80
2022/03/07 06:24:52;;;;;;;5.40;4.90;;;-0.10;99.90;;;;;;5057066;28;20106;-85
2022/03/07 06:27:18;;;;;;;7.70;4.67;;;0.20;99.90;;;;;;5057490;28;20049;-80
2022/03/07 06:29:45;;;;;;;6.67;6.00;;;0.60;99.90;;;;;;5056768;28;20049;-81
2022/03/07 06:32:12;;;;;;;10.17;5.40;;;0.90;99.90;;;;;;5057807;28;20060;-83
2022/03/07 06:34:39;;;;;;;6.10;5.53;;;1.20;99.90;;;;;;5058467;28;20041;-81
2022/03/07 06:37:05;;;;;;;8.87;6.30;;;1.50;99.90;;;;;;5058090;28;20106;-78
2022/03/07 06:39:32;;;;;;;14.13;6.70;;;1.80;99.90;;;;;;5056929;28;20045;-78
2022/03/07 06:42:00;;;;;;;6.70;6.03;;;2.10;99.90;;;;;;5057182;28;20438;-80
2022/03/07 06:44:27;;;;;;;9.33;6.03;;;2.40;99.90;;;;;;5057144;28;20153;-84
2022/03/07 06:46:54;;;;;;;9.03;7.27;;;2.70;99.90;;;;;;5056165;28;20376;-84
2022/03/07 06:49:23;;;;;;;10.00;5.90;;;3.00;99.90;;;;;;5058698;28;20487;-84
2022/03/07 06:51:50;;;;;;;8.40;6.17;;;3.20;99.90;;;;;;5058611;28;20045;-84
2022/03/07 06:54:16;;;;;;;8.07;6.17;;;3.40;99.90;;;;;;5057790;28;20502;-79
2022/03/07 06:56:43;;;;;;;6.50;5.17;;;3.70;99.90;;;;;;5055637;28;20053;-81
2022/03/07 06:59:11;;;;;;;9.70;6.67;;;4.00;99.90;;;;;;5055862;28;20049;-80
2022/03/07 07:01:37;;;;;;;27.67;17.43;;;4.30;99.90;;;;;;5055227;28;20487;-79
2022/03/07 07:04:05;;;;;;;16.83;9.63;;;4.50;99.90;;;;;;5056680;28;20057;-79
2022/03/07 07:06:31;;;;;;;10.77;6.23;;;4.80;99.90;;;;;;5057979;28;20068;-77
2022/03/07 07:09:00;;;;;;;10.77;7.10;;;5.10;99.90;;;;;;5058552;28;20486;-83
2022/03/07 07:11:27;;;;;;;65.63;33.53;;;5.40;99.90;;;;;;5056527;28;20041;-78
2022/03/07 07:13:54;;;;;;;15.93;10.50;;;5.60;99.90;;;;;;5054489;28;20048;-76
2022/03/07 07:16:22;;;;;;;15.33;8.67;;;5.90;99.90;;;;;;5054735;28;20106;-87
2022/03/07 07:18:49;;;;;;;10.00;7.73;;;6.10;99.90;;;;;;5054341;28;20041;-80
2022/03/07 07:21:15;;;;;;;10.70;6.63;;;6.40;99.90;;;;;;5055217;28;20060;-81
2022/03/07 07:23:42;;;;;;;8.80;6.47;;;6.80;99.90;;;;;;5057315;28;20549;-79
2022/03/07 07:26:10;;;;;;;9.40;6.63;;;7.00;99.90;;;;;;5061114;28;20049;-80
2022/03/07 07:28:37;;;;;;;8.17;6.70;;;7.30;99.90;;;;;;5039537;28;20059;-85
2022/03/07 07:31:04;;;;;;;9.90;7.00;;;7.50;99.90;;;;;;5060184;28;20052;-84
2022/03/07 07:33:32;;;;;;;8.88;6.88;;;7.70;99.90;;;;;;5056185;28;20041;-79
2022/03/07 07:35:59;;;;;;;9.45;8.00;;;8.00;99.90;;;;;;5053344;28;20064;-79
2022/03/07 07:38:25;;;;;;;10.18;6.20;;;8.20;99.90;;;;;;5053717;28;20083;-80
2022/03/07 07:40:54;;;;;;;10.95;7.25;;;8.50;99.90;;;;;;5054178;28;20040;-80
2022/03/07 07:43:21;;;;;;;21.13;9.02;;;8.50;99.90;;;;;;5056263;28;20064;-83
2022/03/07 07:45:48;;;;;;;7.40;6.22;;;8.90;99.90;;;;;;5056069;28;20525;-83
2022/03/07 07:48:17;;;;;;;6.78;6.07;;;9.10;99.80;;;;;;5057818;28;20380;-90
2022/03/07 07:50:53;;;;;;;11.98;7.40;;;9.50;98.10;;;;;;5056551;28;20545;-87
2022/03/07 07:53:20;;;;;;;8.38;5.90;;;9.70;97.00;;;;;;5055706;28;20049;-75
2022/03/07 07:55:46;;;;;;;70.70;36.63;;;9.90;96.10;;;;;;5053907;28;20048;-76
2022/03/07 07:58:13;;;;;;;44.03;25.75;;;10.20;95.40;;;;;;5054128;28;20053;-76
2022/03/07 08:00:42;;;;;;;28.73;19.33;;;10.30;94.10;;;;;;5054667;28;20083;-80
2022/03/07 08:03:09;;;;;;;9.80;8.00;;;10.60;93.80;;;;;;5062279;28;20049;-81
2022/03/07 08:05:36;;;;;;;12.60;8.15;;;10.60;93.20;;;;;;5065924;28;20071;-80
2022/03/07 08:08:05;;;;;;;8.43;7.00;;;10.90;92.60;;;;;;5053955;28;20053;-85
2022/03/07 08:10:32;;;;;;;12.07;7.05;;;11.20;92.00;;;;;;5054767;28;20049;-80
2022/03/07 08:12:59;;;;;;;14.88;7.72;;;11.50;90.40;;;;;;5057035;28;20053;-80
2022/03/07 08:15:29;;;;;;;12.90;9.77;;;11.90;90.00;;;;;;5060929;28;20049;-86
2022/03/07 08:17:56;;;;;;;12.20;9.15;;;12.20;86.70;;;;;;5066889;28;20045;-85
2022/03/07 08:20:23;;;;;;;10.60;6.93;;;12.50;84.30;;;;;;5065379;28;20056;-84
2022/03/07 08:22:50;;;;;;;11.70;7.85;;;12.60;81.90;;;;;;5059888;28;20053;-75
2022/03/07 08:25:19;;;;;;;8.57;6.47;;;12.50;81.70;;;;;;5061271;28;20048;-78
2022/03/07 08:27:46;;;;;;;7.25;6.50;;;12.80;81.10;;;;;;5063724;28;20045;-82
2022/03/07 08:30:14;;;;;;;9.63;6.13;;;13.00;79.20;;;;;;5056747;28;20084;-77
2022/03/07 08:32:41;;;;;;;8.85;6.00;;;13.30;78.00;;;;;;5055669;28;20049;-78
2022/03/07 08:35:11;;;;;;;9.70;6.93;;;13.50;76.00;;;;;;5062050;28;20049;-78
2022/03/07 08:37:39;;;;;;;10.52;6.10;;;13.60;74.10;;;;;;5056569;28;20049;-76
2022/03/07 08:40:07;;;;;;;8.18;5.95;;;13.70;73.40;;;;;;5055410;28;20103;-76
2022/03/07 08:42:35;;;;;;;7.80;5.55;;;14.00;72.00;;;;;;5061178;28;20144;-79
2022/03/07 08:45:02;;;;;;;9.02;5.75;;;14.10;70.80;;;;;;5072722;28;20045;-80
2022/03/07 08:47:29;;;;;;;7.25;5.55;;;14.40;69.40;;;;;;5062683;28;20045;-82
2022/03/07 08:49:56;;;;;;;6.75;5.82;;;14.70;68.00;;;;;;5058013;28;20111;-83
2022/03/07 08:52:23;;;;;;;8.38;5.22;;;15.00;66.10;;;;;;5057655;28;20064;-84
2022/03/07 08:54:50;;;;;;;7.75;5.18;;;15.20;64.90;;;;;;5058642;28;20061;-83
2022/03/07 08:57:17;;;;;;;5.40;4.30;;;15.30;64.20;;;;;;5046361;28;20456;-81
2022/03/07 08:59:45;;;;;;;9.45;4.85;;;15.40;63.40;;;;;;5063348;28;20049;-81
2022/03/07 09:02:12;;;;;;;7.43;5.65;;;15.40;60.50;;;;;;5062897;28;20131;-82
2022/03/07 09:04:40;;;;;;;7.25;4.78;;;15.60;59.70;;;;;;5064471;28;20041;-83
2022/03/07 09:07:07;;;;;;;5.40;4.15;;;15.60;58.70;;;;;;5060771;28;20132;-82
2022/03/07 09:09:34;;;;;;;7.50;5.55;;;15.50;58.30;;;;;;5058752;28;20053;-82
2022/03/07 09:12:01;;;;;;;6.38;4.97;;;15.80;58.40;;;;;;5056272;28;20465;-82
2022/03/07 09:14:28;;;;;;;5.90;4.20;;;15.90;58.00;;;;;;5056278;28;20057;-83
2022/03/07 09:16:56;;;;;;;5.82;4.70;;;15.90;57.30;;;;;;5060120;28;20507;-83
2022/03/07 09:19:23;;;;;;;6.68;4.18;;;16.30;56.60;;;;;;5057345;28;20051;-79
2022/03/07 09:21:50;;;;;;;6.75;5.20;;;16.40;56.30;;;;;;5054000;28;20045;-87
2022/03/07 09:24:17;;;;;;;6.50;5.03;;;16.50;55.60;;;;;;5056588;28;20071;-88
2022/03/07 09:26:45;;;;;;;5.45;4.72;;;16.60;56.80;;;;;;5046652;28;20059;-87
2022/03/07 09:29:12;;;;;;;5.70;4.38;;;16.70;55.20;;;;;;5053800;28;20414;-80
2022/03/07 09:31:39;;;;;;;5.80;4.15;;;16.40;54.10;;;;;;5052785;28;20432;-78
2022/03/07 09:34:08;;;;;;;6.72;4.80;;;16.10;54.70;;;;;;5052519;28;20083;-77
2022/03/07 09:36:36;;;;;;;4.20;3.78;;;16.20;54.50;;;;;;5055558;28;20084;-85
2022/03/07 09:39:03;;;;;;;4.53;4.13;;;16.40;54.10;;;;;;5041749;28;20080;-83
2022/03/07 09:41:30;;;;;;;5.82;3.58;;;17.00;53.60;;;;;;5058308;28;20060;-87
2022/03/07 09:43:58;;;;;;;6.30;3.88;;;17.50;52.80;;;;;;5064656;28;20049;-87
2022/03/07 09:46:24;;;;;;;4.80;3.83;;;18.00;52.60;;;;;;5061162;28;20053;-85
2022/03/07 09:51:35;;;;;;;5.70;3.10;;;18.50;50.30;;;;;;5058161;28;20520;-81
2022/03/07 09:54:02;;;;;;;5.13;3.97;;;18.20;49.80;;;;;;5061148;28;20065;-88
2022/03/07 09:59:13;;;;;;;5.80;3.53;;;18.80;48.90;;;;;;5063195;28;20051;-84
2022/03/07 10:01:40;;;;;;;6.28;4.53;;;19.00;48.70;;;;;;5058259;28;20045;-88
2022/03/07 10:04:09;;;;;;;4.05;3.58;;;19.90;49.00;;;;;;5057652;28;20057;-82
2022/03/07 10:06:38;;;;;;;4.45;3.47;;;20.50;47.50;;;;;;5056515;28;20049;-83
2022/03/07 10:09:05;;;;;;;4.95;3.72;;;21.30;46.70;;;;;;5056698;28;20049;-80
2022/03/07 10:11:33;;;;;;;5.22;3.80;;;21.60;45.40;;;;;;5055890;28;20041;-81
2022/03/07 10:14:03;;;;;;;4.90;3.22;;;21.90;45.20;;;;;;5055700;28;20052;-78
2022/03/07 10:16:39;;;;;;;4.70;3.58;;;21.80;44.70;;;;;;5056092;28;20048;-76
2022/03/07 10:19:09;;;;;;;4.00;3.55;;;22.00;44.60;;;;;;5057024;28;20104;-81
2022/03/07 10:21:36;;;;;;;8.15;3.85;;;22.30;43.60;;;;;;5056280;28;20104;-76
2022/03/07 10:24:05;;;;;;;3.83;3.10;;;23.00;42.70;;;;;;5056029;28;20075;-79
2022/03/07 10:26:35;;;;;;;5.03;3.83;;;23.50;41.70;;;;;;5055640;28;20114;-77
2022/03/07 10:29:04;;;;;;;4.85;3.70;;;23.90;41.70;;;;;;5055877;28;20045;-80
2022/03/07 10:31:32;;;;;;;6.03;3.67;;;23.90;41.10;;;;;;5056309;28;20044;-79
2022/03/07 10:34:04;;;;;;;3.63;3.00;;;24.10;40.90;;;;;;5057236;28;20051;-85
2022/03/07 10:36:31;;;;;;;5.20;3.70;;;24.50;40.70;;;;;;5056395;28;20076;-86
2022/03/07 10:38:59;;;;;;;4.78;3.65;;;25.10;39.80;;;;;;5056664;28;20052;-90
2022/03/07 10:41:37;;;;;;;4.40;3.53;;;25.20;38.60;;;;;;5058403;28;20037;-83
2022/03/07 10:44:06;;;;;;;4.63;3.42;;;25.20;38.80;;;;;;5058169;28;20053;-86
2022/03/07 10:46:33;;;;;;;4.55;3.30;;;25.30;38.70;;;;;;5057125;28;20037;-82
2022/03/07 10:51:52;;;;;;;4.45;3.20;;;25.10;37.90;;;;;;5056162;28;20077;-81
2022/03/07 10:54:20;;;;;;;4.18;3.45;;;24.80;37.80;;;;;;5055428;28;20578;-81
2022/03/07 10:56:51;;;;;;;4.25;3.83;;;25.10;37.70;;;;;;5055277;28;20041;-82
2022/03/07 10:59:28;;;;;;;6.32;3.60;;;25.30;37.60;;;;;;5056883;28;20052;-81
2022/03/07 11:02:01;;;;;;;5.88;4.47;;;25.10;37.70;;;;;;5057075;28;20510;-82
2022/03/07 11:04:29;;;;;;;4.50;4.10;;;25.60;37.50;;;;;;5060773;28;20045;-83
2022/03/07 11:06:57;;;;;;;4.65;3.50;;;25.90;36.70;;;;;;5065352;28;20075;-87
2022/03/07 11:09:24;;;;;;;4.95;3.33;;;26.00;36.30;;;;;;5066803;28;20404;-85
2022/03/07 11:11:52;;;;;;;7.90;4.85;;;26.10;36.40;;;;;;5056194;28;20075;-86
2022/03/07 11:14:21;;;;;;;6.45;3.30;;;26.20;36.40;;;;;;5055483;28;20041;-83
2022/03/07 11:16:50;;;;;;;3.60;3.00;;;26.00;35.60;;;;;;5040557;28;20076;-85
2022/03/07 11:19:19;;;;;;;3.78;2.70;;;26.20;35.60;;;;;;5057049;28;20049;-82
2022/03/07 11:21:49;;;;;;;4.00;2.45;;;25.90;34.10;;;;;;5056150;28;20044;-84
2022/03/07 11:24:17;;;;;;;4.50;2.55;;;25.80;35.00;;;;;;5055813;28;20411;-81
2022/03/07 11:26:44;;;;;;;2.88;2.05;;;25.80;34.70;;;;;;5055362;28;20056;-80
2022/03/07 11:29:12;;;;;;;2.45;2.13;;;25.60;34.20;;;;;;5054691;28;20530;-84
2022/03/07 11:31:39;;;;;;;3.35;2.15;;;24.90;34.40;;;;;;5056524;28;20099;-83
2022/03/07 11:34:08;;;;;;;3.58;2.92;;;25.40;34.30;;;;;;5055185;28;20102;-82
2022/03/07 11:36:38;;;;;;;4.45;3.50;;;25.70;34.00;;;;;;5053977;28;20055;-82
2022/03/07 11:39:06;;;;;;;6.22;4.53;;;26.20;33.80;;;;;;5053097;28;20057;-80
2022/03/07 11:41:36;;;;;;;3.22;2.90;;;26.10;33.60;;;;;;5053735;28;20107;-79
2022/03/07 11:44:07;;;;;;;6.88;1.92;;;26.20;33.70;;;;;;5055602;28;20487;-87
2022/03/07 11:46:37;;;;;;;4.10;2.10;;;25.70;33.60;;;;;;5055622;28;20068;-83
2022/03/07 11:49:06;;;;;;;3.33;2.90;;;25.20;33.10;;;;;;5053556;28;20045;-82
2022/03/07 11:51:36;;;;;;;3.72;2.45;;;24.70;33.60;;;;;;5055031;28;20069;-81
2022/03/07 11:54:04;;;;;;;3.92;2.20;;;24.40;34.70;;;;;;5055349;28;20055;-82
2022/03/07 11:56:34;;;;;;;2.22;1.95;;;24.70;34.00;;;;;;5054502;28;20052;-83
2022/03/07 11:59:03;;;;;;;3.53;2.00;;;24.20;34.30;;;;;;5054424;28;20074;-76
2022/03/07 12:01:31;;;;;;;3.20;2.20;;;24.40;34.80;;;;;;5056197;28;20045;-76
2022/03/07 12:04:14;;;;;;;3.08;2.25;;;24.60;34.90;;;;;;5057483;28;20049;-87
2022/03/07 12:06:45;;;;;;;2.95;2.33;;;24.50;33.70;;;;;;5055124;28;20136;-81
2022/03/07 12:09:22;;;;;;;2.50;2.20;;;24.20;34.30;;;;;;5054620;28;20480;-80
2022/03/07 12:11:58;;;;;;;6.15;2.53;;;24.40;34.90;;;;;;5060028;28;20087;-81
2022/03/07 12:14:28;;;;;;;2.47;2.13;;;24.90;34.10;;;;;;5056802;28;20103;-80
2022/03/07 12:16:55;;;;;;;24.25;19.70;;;25.60;33.50;;;;;;5054335;28;20052;-78
2022/03/07 12:19:26;;;;;;;4.57;4.13;;;25.50;34.40;;;;;;5053639;28;20098;-90
2022/03/07 12:21:53;;;;;;;24.15;18.30;;;24.90;34.20;;;;;;5053604;28;20056;-76
2022/03/07 12:24:24;;;;;;;4.63;3.65;;;25.20;35.70;;;;;;5053646;28;20491;-78
2022/03/07 12:26:52;;;;;;;3.70;2.30;;;25.40;34.70;;;;;;5053755;28;20048;-77
2022/03/07 12:29:21;;;;;;;2.33;2.00;;;25.70;34.00;;;;;;5053925;28;20287;-81
2022/03/07 12:31:49;;;;;;;2.38;1.85;;;24.80;33.30;;;;;;5053523;28;20041;-82
2022/03/07 12:34:20;;;;;;;2.85;2.20;;;24.60;34.00;;;;;;5053882;28;20049;-80
2022/03/07 12:36:59;;;;;;;2.65;1.90;;;25.20;34.50;;;;;;5053138;28;20487;-80
2022/03/07 12:39:26;;;;;;;2.67;2.28;;;24.80;33.20;;;;;;5053296;28;20044;-82
2022/03/07 12:41:53;;;;;;;22.33;13.35;;;24.90;33.40;;;;;;5053778;28;20106;-80
2022/03/07 12:44:24;;;;;;;32.55;19.50;;;24.20;33.70;;;;;;5053785;28;20049;-84
2022/03/07 12:46:52;;;;;;;4.93;3.25;;;23.20;35.20;;;;;;5054946;28;20442;-86
2022/03/07 12:49:20;;;;;;;1.92;1.70;;;23.70;34.50;;;;;;5052873;28;20056;-76
2022/03/07 12:51:48;;;;;;;3.08;2.08;;;23.80;34.70;;;;;;5051990;28;20045;-77
2022/03/07 12:54:14;;;;;;;2.83;1.50;;;23.70;34.30;;;;;;5040808;28;20191;-80
2022/03/07 12:56:46;;;;;;;1.35;1.25;;;24.00;33.90;;;;;;5053214;28;20041;-78
2022/03/07 12:59:14;;;;;;;2.10;1.08;;;23.60;33.80;;;;;;5053579;28;20133;-79